首页
METAR-TAF:

METAR-TAF

机场 :

Ilam, 伊朗

纬度: 33-35-09N, 经度: 046-24-20E, 海拔: 1334米

当前天气观测

该预报发布于59分钟前的16:00 UTC
风速4节,风向南转南东
温度 8°C
湿度 71%
气压 1017 hPa
能见度10公里或以上
少量云层高于4500英尺
多云层高于9000英尺

METAR: OICI 121600Z 15004KT 9999 FEW045 BKN090 08/03 Q1016 A3002

时间: 20:29 (16:59 UTC)

预报

该预报发布于5小时和9分钟前的11:50 UTC
预报有效从12日的 12点(UTC)到 13日的 18点(UTC)
风速8节,风向东南
能见度10公里或以上
1500米以下无云,无积雨云
成为
从 12日的 19点(UTC)到 12日的 21点(UTC)
少量云层高于3000英尺, 积雨云.
散云层高于3500英尺
阴天层高于10000英尺
短暂存在
从 12日的 22点(UTC)到 13日的 05点(UTC)
能見度: 3000
散云层高于3000英尺, 积雨云.
散云层高于3500英尺
阴天层高于10000英尺
雷暴, 雨
成为
从 13日的 13点(UTC)到 13日的 14点(UTC)
少量云层高于2500英尺
散云层高于3000英尺
多云层高于9000英尺

TAF: OICI 121150Z 1212/1318 14008KT CAVOK BECMG 1219/1221 FEW030CB SCT035 OVC100 TEMPO 1222/1305 3000 TSRA SCT030CB SCT035 OVC100 BECMG 1313/1314 FEW025 SCT030 BKN090

超过4000个机场的气象观测和天气预报(METAR&TAF报告)。

可查询的气象台以黄色和红色小点在地图上表示。

将鼠标移到小点上方,可查看气象台名称。

然后点击查看天气观测和预报。

如需切换地图:点击带黑十字的绿色按钮放大地图;点击带横线的绿色按钮缩小地图;或者点击绿色箭头查看邻近地区的地图。


METAR-TAF: